Orlando, Florida
Traffic Map
Current Weather Conditions
Orlando, Florida
Clear
Clear
71°
Feels Like: 71°
Wind Chill: 71° Ceiling: Unl
Heat Index: 71° Visibility: 10mi
Dew Point: 36° Wind: 0mph
Humidity: 28% Direction: ° ()
Pressure: 30.28in Gusts: 0mph
Raw Report DataKORL 301653Z 00000KT 10SM CLR 22/02 A3028 RMK AO2 SLP258 T02170022
Traffic Incident Summary
Active as of:
Severity:
Category:
InformationThere was an issue retrieving the traffic information for this location. Please try a different location or try again shortly.
Advertisements
Track Severe Weather on mobile